sensor_id;sensor_type;location;lat;lon;timestamp;pressure;altitude;pressure_sealevel;temperature;humidity
79138;BME280;68544;45.566;10.238;2023-06-19T00:01:45;64809.69;;;25.10;50.14
79138;BME280;68544;45.566;10.238;2023-06-19T00:04:10;64806.72;;;25.06;49.80
79138;BME280;68544;45.566;10.238;2023-06-19T00:06:36;64802.84;;;25.03;50.17
79138;BME280;68544;45.566;10.238;2023-06-19T00:09:02;64800.84;;;25.01;49.87
79138;BME280;68544;45.566;10.238;2023-06-19T00:11:27;64798.94;;;24.99;49.46
79138;BME280;68544;45.566;10.238;2023-06-19T00:13:52;64796.78;;;24.97;49.32
79138;BME280;68544;45.566;10.238;2023-06-19T00:16:18;64794.91;;;24.95;49.48
79138;BME280;68544;45.566;10.238;2023-06-19T00:18:45;64791.41;;;24.92;50.57
79138;BME280;68544;45.566;10.238;2023-06-19T00:21:10;64787.63;;;24.88;50.98
79138;BME280;68544;45.566;10.238;2023-06-19T00:23:35;64784.69;;;24.86;50.69
79138;BME280;68544;45.566;10.238;2023-06-19T00:26:01;64780.63;;;24.82;51.23
79138;BME280;68544;45.566;10.238;2023-06-19T00:28:30;64776.84;;;24.78;51.07
79138;BME280;68544;45.566;10.238;2023-06-19T00:30:55;64772.75;;;24.75;51.14
79138;BME280;68544;45.566;10.238;2023-06-19T00:33:21;64768.78;;;24.71;50.87
79138;BME280;68544;45.566;10.238;2023-06-19T00:35:47;64765.84;;;24.69;50.44
79138;BME280;68544;45.566;10.238;2023-06-19T00:38:13;64762.44;;;24.66;51.02
79138;BME280;68544;45.566;10.238;2023-06-19T00:40:38;64759.38;;;24.63;51.92
79138;BME280;68544;45.566;10.238;2023-06-19T00:43:04;64754.53;;;24.58;53.38
79138;BME280;68544;45.566;10.238;2023-06-19T00:45:29;64750.13;;;24.54;53.60
79138;BME280;68544;45.566;10.238;2023-06-19T00:47:55;64746.34;;;24.51;53.38
79138;BME280;68544;45.566;10.238;2023-06-19T00:50:22;64742.75;;;24.47;53.71
79138;BME280;68544;45.566;10.238;2023-06-19T00:52:47;64740.03;;;24.45;53.04
79138;BME280;68544;45.566;10.238;2023-06-19T00:55:13;64736.44;;;24.41;53.26
79138;BME280;68544;45.566;10.238;2023-06-19T00:57:40;64734.03;;;24.39;52.90
79138;BME280;68544;45.566;10.238;2023-06-19T01:00:05;64731.69;;;24.37;52.91
79138;BME280;68544;45.566;10.238;2023-06-19T01:02:32;64728.72;;;24.34;53.73
79138;BME280;68544;45.566;10.238;2023-06-19T01:04:58;64725.78;;;24.31;53.68
79138;BME280;68544;45.566;10.238;2023-06-19T01:08:03;64722.63;;;24.28;53.62
79138;BME280;68544;45.566;10.238;2023-06-19T01:10:42;64719.13;;;24.25;54.29
79138;BME280;68544;45.566;10.238;2023-06-19T01:15:41;64711.22;;;24.18;54.67
79138;BME280;68544;45.566;10.238;2023-06-19T01:18:07;64708.88;;;24.15;54.10
79138;BME280;68544;45.566;10.238;2023-06-19T01:20:32;64703.75;;;24.10;55.83
79138;BME280;68544;45.566;10.238;2023-06-19T01:23:06;64696.84;;;24.04;56.75
79138;BME280;68544;45.566;10.238;2023-06-19T01:25:32;64691.81;;;24.00;55.99
79138;BME280;68544;45.566;10.238;2023-06-19T01:27:57;64686.25;;;23.94;56.14
79138;BME280;68544;45.566;10.238;2023-06-19T01:30:22;64682.16;;;23.91;55.87
79138;BME280;68544;45.566;10.238;2023-06-19T01:32:58;64680.06;;;23.89;55.34
79138;BME280;68544;45.566;10.238;2023-06-19T01:35:28;64676.13;;;23.85;55.62
79138;BME280;68544;45.566;10.238;2023-06-19T01:37:54;64673.69;;;23.83;54.72
79138;BME280;68544;45.566;10.238;2023-06-19T01:40:20;64670.50;;;23.80;55.02
79138;BME280;68544;45.566;10.238;2023-06-19T01:42:52;64668.25;;;23.78;54.81
79138;BME280;68544;45.566;10.238;2023-06-19T01:45:17;64666.78;;;23.77;54.92
79138;BME280;68544;45.566;10.238;2023-06-19T01:47:43;64664.81;;;23.75;55.22
79138;BME280;68544;45.566;10.238;2023-06-19T01:50:09;64663.47;;;23.73;54.72
79138;BME280;68544;45.566;10.238;2023-06-19T01:52:35;64662.75;;;23.73;54.47
79138;BME280;68544;45.566;10.238;2023-06-19T01:55:00;64660.88;;;23.71;54.80
79138;BME280;68544;45.566;10.238;2023-06-19T01:57:26;64659.25;;;23.70;54.66
79138;BME280;68544;45.566;10.238;2023-06-19T01:59:51;64657.66;;;23.68;54.29
79138;BME280;68544;45.566;10.238;2023-06-19T02:02:16;64656.28;;;23.67;54.09
79138;BME280;68544;45.566;10.238;2023-06-19T02:04:42;64655.91;;;23.66;53.22
79138;BME280;68544;45.566;10.238;2023-06-19T02:07:07;64654.69;;;23.65;53.49
79138;BME280;68544;45.566;10.238;2023-06-19T02:09:33;64654.84;;;23.65;53.15
79138;BME280;68544;45.566;10.238;2023-06-19T02:11:58;64653.66;;;23.64;53.54
79138;BME280;68544;45.566;10.238;2023-06-19T02:14:23;64652.97;;;23.64;53.38
79138;BME280;68544;45.566;10.238;2023-06-19T02:16:49;64652.44;;;23.63;54.80
79138;BME280;68544;45.566;10.238;2023-06-19T02:19:14;64649.28;;;23.60;56.54
79138;BME280;68544;45.566;10.238;2023-06-19T02:21:39;64647.56;;;23.58;55.68
79138;BME280;68544;45.566;10.238;2023-06-19T02:24:05;64646.75;;;23.57;55.19
79138;BME280;68544;45.566;10.238;2023-06-19T02:26:31;64646.28;;;23.57;54.86
79138;BME280;68544;45.566;10.238;2023-06-19T02:28:56;64645.38;;;23.56;54.52
79138;BME280;68544;45.566;10.238;2023-06-19T02:31:22;64645.56;;;23.56;53.95
79138;BME280;68544;45.566;10.238;2023-06-19T02:33:47;64645.56;;;23.56;54.31
79138;BME280;68544;45.566;10.238;2023-06-19T02:36:13;64645.56;;;23.56;53.98
79138;BME280;68544;45.566;10.238;2023-06-19T02:38:38;64644.16;;;23.55;53.93
79138;BME280;68544;45.566;10.238;2023-06-19T02:41:03;64642.81;;;23.54;53.91
79138;BME280;68544;45.566;10.238;2023-06-19T02:43:30;64642.34;;;23.53;53.73
79138;BME280;68544;45.566;10.238;2023-06-19T02:45:55;64642.34;;;23.53;53.32
79138;BME280;68544;45.566;10.238;2023-06-19T02:48:20;64641.53;;;23.52;53.93
79138;BME280;68544;45.566;10.238;2023-06-19T02:50:48;64641.34;;;23.52;54.29
79138;BME280;68544;45.566;10.238;2023-06-19T02:53:13;64639.56;;;23.50;54.82
79138;BME280;68544;45.566;10.238;2023-06-19T02:55:39;64637.88;;;23.49;54.56
79138;BME280;68544;45.566;10.238;2023-06-19T02:58:04;64637.06;;;23.48;54.60
79138;BME280;68544;45.566;10.238;2023-06-19T03:00:30;64635.44;;;23.47;54.69
79138;BME280;68544;45.566;10.238;2023-06-19T03:02:55;64633.91;;;23.45;54.47
79138;BME280;68544;45.566;10.238;2023-06-19T03:05:21;64633.03;;;23.44;54.50
79138;BME280;68544;45.566;10.238;2023-06-19T03:07:46;64632.91;;;23.44;54.02
79138;BME280;68544;45.566;10.238;2023-06-19T03:10:11;64632.66;;;23.44;54.02
79138;BME280;68544;45.566;10.238;2023-06-19T03:12:36;64632.28;;;23.43;54.16
79138;BME280;68544;45.566;10.238;2023-06-19T03:15:02;64630.88;;;23.42;54.38
79138;BME280;68544;45.566;10.238;2023-06-19T03:17:27;64630.31;;;23.42;54.70
79138;BME280;68544;45.566;10.238;2023-06-19T03:19:52;64631.41;;;23.43;53.74
79138;BME280;68544;45.566;10.238;2023-06-19T03:22:19;64629.84;;;23.41;55.07
79138;BME280;68544;45.566;10.238;2023-06-19T03:24:44;64629.03;;;23.40;54.97
79138;BME280;68544;45.566;10.238;2023-06-19T03:27:09;64628.31;;;23.39;54.55
79138;BME280;68544;45.566;10.238;2023-06-19T03:29:35;64627.44;;;23.39;54.44
79138;BME280;68544;45.566;10.238;2023-06-19T03:32:00;64625.91;;;23.38;54.86
79138;BME280;68544;45.566;10.238;2023-06-19T03:34:26;64624.22;;;23.36;55.07
79138;BME280;68544;45.566;10.238;2023-06-19T03:36:51;64624.03;;;23.36;54.40
79138;BME280;68544;45.566;10.238;2023-06-19T03:39:16;64624.13;;;23.36;54.42
79138;BME280;68544;45.566;10.238;2023-06-19T03:41:41;64624.00;;;23.35;54.55
79138;BME280;68544;45.566;10.238;2023-06-19T03:44:07;64622.22;;;23.34;54.69
79138;BME280;68544;45.566;10.238;2023-06-19T03:46:32;64620.63;;;23.32;54.83
79138;BME280;68544;45.566;10.238;2023-06-19T03:48:57;64619.78;;;23.32;54.42
79138;BME280;68544;45.566;10.238;2023-06-19T03:51:22;64618.34;;;23.31;54.46
79138;BME280;68544;45.566;10.238;2023-06-19T03:53:48;64618.00;;;23.30;54.48
79138;BME280;68544;45.566;10.238;2023-06-19T03:56:13;64617.47;;;23.30;54.34
79138;BME280;68544;45.566;10.238;2023-06-19T03:58:38;64617.28;;;23.30;53.84
79138;BME280;68544;45.566;10.238;2023-06-19T04:01:03;64617.41;;;23.30;53.90
79138;BME280;68544;45.566;10.238;2023-06-19T04:03:30;64617.56;;;23.30;54.12
79138;BME280;68544;45.566;10.238;2023-06-19T04:05:55;64617.28;;;23.30;54.23
79138;BME280;68544;45.566;10.238;2023-06-19T04:08:21;64617.38;;;23.29;54.12
79138;BME280;68544;45.566;10.238;2023-06-19T04:10:46;64617.72;;;23.30;53.65
79138;BME280;68544;45.566;10.238;2023-06-19T04:13:12;64618.97;;;23.31;53.46
79138;BME280;68544;45.566;10.238;2023-06-19T04:15:37;64619.00;;;23.31;53.64
79138;BME280;68544;45.566;10.238;2023-06-19T04:18:02;64619.34;;;23.31;54.19
79138;BME280;68544;45.566;10.238;2023-06-19T04:20:28;64618.81;;;23.31;55.54
79138;BME280;68544;45.566;10.238;2023-06-19T04:22:53;64618.19;;;23.30;56.31
79138;BME280;68544;45.566;10.238;2023-06-19T04:25:19;64617.38;;;23.29;56.20
79138;BME280;68544;45.566;10.238;2023-06-19T04:27:45;64617.06;;;23.29;56.34
79138;BME280;68544;45.566;10.238;2023-06-19T04:30:11;64617.31;;;23.29;55.63
79138;BME280;68544;45.566;10.238;2023-06-19T04:32:36;64617.31;;;23.29;55.82
79138;BME280;68544;45.566;10.238;2023-06-19T04:35:09;64618.41;;;23.30;55.55
79138;BME280;68544;45.566;10.238;2023-06-19T04:37:35;64619.09;;;23.30;55.38
79138;BME280;68544;45.566;10.238;2023-06-19T04:40:00;64619.75;;;23.31;55.21
79138;BME280;68544;45.566;10.238;2023-06-19T04:42:26;64621.22;;;23.33;54.30
79138;BME280;68544;45.566;10.238;2023-06-19T04:44:52;64624.09;;;23.35;53.83
79138;BME280;68544;45.566;10.238;2023-06-19T04:47:19;64627.13;;;23.38;53.28
79138;BME280;68544;45.566;10.238;2023-06-19T04:49:45;64630.88;;;23.41;53.43
79138;BME280;68544;45.566;10.238;2023-06-19T04:52:10;64635.25;;;23.44;53.30
79138;BME280;68544;45.566;10.238;2023-06-19T04:54:36;64639.00;;;23.48;53.39
79138;BME280;68544;45.566;10.238;2023-06-19T04:57:01;64643.56;;;23.52;52.93
79138;BME280;68544;45.566;10.238;2023-06-19T04:59:27;64648.91;;;23.56;52.74
79138;BME280;68544;45.566;10.238;2023-06-19T05:01:52;64656.16;;;23.63;51.86
79138;BME280;68544;45.566;10.238;2023-06-19T05:04:21;64662.50;;;23.68;51.59
79138;BME280;68544;45.566;10.238;2023-06-19T05:06:48;64667.88;;;23.73;51.77
79138;BME280;68544;45.566;10.238;2023-06-19T05:09:13;64671.47;;;23.76;52.34
79138;BME280;68544;45.566;10.238;2023-06-19T05:11:38;64675.22;;;23.79;52.65
79138;BME280;68544;45.566;10.238;2023-06-19T05:14:03;64678.63;;;23.82;52.86
79138;BME280;68544;45.566;10.238;2023-06-19T05:16:29;64682.66;;;23.86;52.72
79138;BME280;68544;45.566;10.238;2023-06-19T05:18:54;64687.66;;;23.90;52.27
79138;BME280;68544;45.566;10.238;2023-06-19T05:21:19;64693.50;;;23.96;51.86
79138;BME280;68544;45.566;10.238;2023-06-19T05:23:45;64697.88;;;24.00;51.88
79138;BME280;68544;45.566;10.238;2023-06-19T05:26:12;64702.94;;;24.04;51.46
79138;BME280;68544;45.566;10.238;2023-06-19T05:28:38;64707.84;;;24.09;50.69
79138;BME280;68544;45.566;10.238;2023-06-19T05:31:04;64712.06;;;24.12;50.94
79138;BME280;68544;45.566;10.238;2023-06-19T05:33:29;64718.34;;;24.18;49.76
79138;BME280;68544;45.566;10.238;2023-06-19T05:35:55;64723.47;;;24.23;50.16
79138;BME280;68544;45.566;10.238;2023-06-19T05:38:21;64731.44;;;24.30;49.63
79138;BME280;68544;45.566;10.238;2023-06-19T05:40:46;64738.41;;;24.36;49.88
79138;BME280;68544;45.566;10.238;2023-06-19T05:43:12;64745.59;;;24.43;49.59
79138;BME280;68544;45.566;10.238;2023-06-19T05:45:37;64753.28;;;24.49;49.52
79138;BME280;68544;45.566;10.238;2023-06-19T05:48:03;64761.69;;;24.57;49.27
79138;BME280;68544;45.566;10.238;2023-06-19T05:50:28;64771.19;;;24.65;48.56
79138;BME280;68544;45.566;10.238;2023-06-19T05:52:53;64780.66;;;24.74;48.65
79138;BME280;68544;45.566;10.238;2023-06-19T05:55:19;64789.78;;;24.82;48.51
79138;BME280;68544;45.566;10.238;2023-06-19T05:57:44;64798.13;;;24.89;48.67
79138;BME280;68544;45.566;10.238;2023-06-19T06:00:10;64806.81;;;24.97;48.62
79138;BME280;68544;45.566;10.238;2023-06-19T06:02:41;64818.03;;;25.07;47.44
79138;BME280;68544;45.566;10.238;2023-06-19T06:05:07;64828.34;;;25.16;47.86
79138;BME280;68544;45.566;10.238;2023-06-19T06:07:34;64841.09;;;25.28;46.50
79138;BME280;68544;45.566;10.238;2023-06-19T06:09:59;64855.09;;;25.40;45.47
79138;BME280;68544;45.566;10.238;2023-06-19T06:12:25;64871.78;;;25.55;44.46
79138;BME280;68544;45.566;10.238;2023-06-19T06:14:50;64885.41;;;25.67;44.65
79138;BME280;68544;45.566;10.238;2023-06-19T06:17:15;64899.31;;;25.79;43.69
79138;BME280;68544;45.566;10.238;2023-06-19T06:19:40;64914.66;;;25.93;43.14
79138;BME280;68544;45.566;10.238;2023-06-19T06:22:06;64928.50;;;26.06;43.99
79138;BME280;68544;45.566;10.238;2023-06-19T06:24:31;64943.78;;;26.19;43.10
79138;BME280;68544;45.566;10.238;2023-06-19T06:26:56;64957.13;;;26.31;43.67
79138;BME280;68544;45.566;10.238;2023-06-19T06:29:21;64969.72;;;26.42;43.50
79138;BME280;68544;45.566;10.238;2023-06-19T06:31:47;64980.66;;;26.52;43.91
79138;BME280;68544;45.566;10.238;2023-06-19T06:34:13;64992.41;;;26.63;43.79
79138;BME280;68544;45.566;10.238;2023-06-19T06:36:38;65007.19;;;26.76;41.82
79138;BME280;68544;45.566;10.238;2023-06-19T06:39:04;65020.91;;;26.88;42.52
79138;BME280;68544;45.566;10.238;2023-06-19T06:41:31;65036.75;;;27.02;41.17
79138;BME280;68544;45.566;10.238;2023-06-19T06:43:56;65046.69;;;27.11;41.26
79138;BME280;68544;45.566;10.238;2023-06-19T06:46:22;65056.69;;;27.20;41.67
79138;BME280;68544;45.566;10.238;2023-06-19T06:48:47;65067.75;;;27.30;41.24
79138;BME280;68544;45.566;10.238;2023-06-19T06:51:13;65077.94;;;27.40;41.50
79138;BME280;68544;45.566;10.238;2023-06-19T06:53:38;65088.34;;;27.49;41.01
79138;BME280;68544;45.566;10.238;2023-06-19T06:56:03;65102.03;;;27.61;39.57
79138;BME280;68544;45.566;10.238;2023-06-19T06:58:29;65118.84;;;27.76;38.25
79138;BME280;68544;45.566;10.238;2023-06-19T07:00:55;65135.56;;;27.91;37.97
79138;BME280;68544;45.566;10.238;2023-06-19T07:03:21;65154.38;;;28.08;37.20
79138;BME280;68544;45.566;10.238;2023-06-19T07:05:47;65171.66;;;28.24;37.37
79138;BME280;68544;45.566;10.238;2023-06-19T07:08:13;65196.03;;;28.45;34.86
79138;BME280;68544;45.566;10.238;2023-06-19T07:10:38;65233.22;;;28.79;30.40
79138;BME280;68544;45.566;10.238;2023-06-19T07:13:03;65291.75;;;29.31;25.10
79138;BME280;68544;45.566;10.238;2023-06-19T07:15:29;65359.69;;;29.92;22.52
79138;BME280;68544;45.566;10.238;2023-06-19T07:17:55;65428.66;;;30.54;21.25
79138;BME280;68544;45.566;10.238;2023-06-19T07:20:21;60991.41;;;-142.84;100.00
79138;BME280;68544;45.566;10.238;2023-06-19T07:22:46;65513.53;;;31.30;17.77
79138;BME280;68544;45.566;10.238;2023-06-19T07:25:12;60991.41;;;-142.84;100.00
79138;BME280;68544;45.566;10.238;2023-06-19T07:27:38;60991.41;;;-142.84;100.00
79138;BME280;68544;45.566;10.238;2023-06-19T07:30:05;60991.41;;;-142.84;100.00
79138;BME280;68544;45.566;10.238;2023-06-19T07:32:30;60991.41;;;-142.84;100.00
79138;BME280;68544;45.566;10.238;2023-06-19T07:34:56;60991.41;;;-142.83;100.00
79138;BME280;68544;45.566;10.238;2023-06-19T07:37:22;60991.41;;;-142.84;100.00
79138;BME280;68544;45.566;10.238;2023-06-19T07:39:48;60991.41;;;-142.84;100.00
79138;BME280;68544;45.566;10.238;2023-06-19T07:42:15;60991.41;;;-142.84;100.00
79138;BME280;68544;45.566;10.238;2023-06-19T07:44:41;60991.41;;;-142.84;100.00
79138;BME280;68544;45.566;10.238;2023-06-19T07:47:07;60991.41;;;-142.84;100.00
79138;BME280;68544;45.566;10.238;2023-06-19T07:49:33;60991.41;;;-142.84;100.00
79138;BME280;68544;45.566;10.238;2023-06-19T07:51:58;60991.41;;;-142.84;100.00
79138;BME280;68544;45.566;10.238;2023-06-19T07:54:24;60991.41;;;-142.84;100.00
79138;BME280;68544;45.566;10.238;2023-06-19T07:56:49;60991.41;;;-142.84;100.00
79138;BME280;68544;45.566;10.238;2023-06-19T07:59:14;60991.41;;;-142.84;100.00
79138;BME280;68544;45.566;10.238;2023-06-19T08:01:40;60991.41;;;-142.84;100.00
79138;BME280;68544;45.566;10.238;2023-06-19T08:04:06;60991.41;;;-142.84;100.00
79138;BME280;68544;45.566;10.238;2023-06-19T08:06:31;60991.41;;;-142.84;100.00
79138;BME280;68544;45.566;10.238;2023-06-19T08:08:56;60991.41;;;-142.84;100.00
79138;BME280;68544;45.566;10.238;2023-06-19T08:11:22;60991.41;;;-142.84;100.00
79138;BME280;68544;45.566;10.238;2023-06-19T08:13:52;60991.41;;;-142.84;100.00
79138;BME280;68544;45.566;10.238;2023-06-19T08:17:16;60991.41;;;-142.84;100.00
79138;BME280;68544;45.566;10.238;2023-06-19T08:20:02;60991.41;;;-142.84;100.00
79138;BME280;68544;45.566;10.238;2023-06-19T08:22:32;60991.41;;;-142.84;100.00
79138;BME280;68544;45.566;10.238;2023-06-19T08:25:08;60991.41;;;-142.84;100.00
79138;BME280;68544;45.566;10.238;2023-06-19T08:27:33;65614.72;;;32.20;13.55
79138;BME280;68544;45.566;10.238;2023-06-19T08:29:59;65712.59;;;33.08;13.07
79138;BME280;68544;45.566;10.238;2023-06-19T08:32:24;65805.63;;;33.92;13.00
79138;BME280;68544;45.566;10.238;2023-06-19T08:34:50;65905.81;;;34.82;12.00
79138;BME280;68544;45.566;10.238;2023-06-19T08:37:17;60991.41;;;-142.84;100.00
79138;BME280;68544;45.566;10.238;2023-06-19T08:39:45;65905.81;;;34.82;12.00
79138;BME280;68544;45.566;10.238;2023-06-19T08:42:10;65996.63;;;35.64;11.54
79138;BME280;68544;45.566;10.238;2023-06-19T08:44:36;66066.38;;;36.26;13.16
79138;BME280;68544;45.566;10.238;2023-06-19T08:47:05;60991.41;;;-142.84;100.00
79138;BME280;68544;45.566;10.238;2023-06-19T08:49:33;60991.41;;;-142.84;100.00
79138;BME280;68544;45.566;10.238;2023-06-19T08:51:59;60991.41;;;-142.84;100.00
79138;BME280;68544;45.566;10.238;2023-06-19T08:54:33;60991.41;;;-142.84;100.00
79138;BME280;68544;45.566;10.238;2023-06-19T08:58:00;60991.41;;;-142.84;100.00
79138;BME280;68544;45.566;10.238;2023-06-19T09:01:25;60991.41;;;-142.84;100.00
79138;BME280;68544;45.566;10.238;2023-06-19T09:04:51;60991.41;;;-142.84;100.00
79138;BME280;68544;45.566;10.238;2023-06-19T09:07:19;66066.38;;;36.26;13.16
79138;BME280;68544;45.566;10.238;2023-06-19T09:09:54;60991.41;;;-142.84;100.00
79138;BME280;68544;45.566;10.238;2023-06-19T09:12:23;60991.41;;;-142.84;100.00
79138;BME280;68544;45.566;10.238;2023-06-19T09:14:49;60991.41;;;-142.84;100.00
79138;BME280;68544;45.566;10.238;2023-06-19T09:17:20;60991.41;;;-142.84;100.00
79138;BME280;68544;45.566;10.238;2023-06-19T09:19:50;60991.41;;;-142.84;100.00
79138;BME280;68544;45.566;10.238;2023-06-19T09:22:17;60991.41;;;-142.84;100.00
79138;BME280;68544;45.566;10.238;2023-06-19T09:24:46;60991.41;;;-142.84;100.00
79138;BME280;68544;45.566;10.238;2023-06-19T09:27:18;60991.41;;;-142.84;100.00
79138;BME280;68544;45.566;10.238;2023-06-19T09:29:47;60991.41;;;-142.84;100.00
79138;BME280;68544;45.566;10.238;2023-06-19T09:32:24;60991.41;;;-142.84;100.00
79138;BME280;68544;45.566;10.238;2023-06-19T09:35:49;60991.41;;;-142.84;100.00
79138;BME280;68544;45.566;10.238;2023-06-19T09:39:14;60991.41;;;-142.84;100.00
79138;BME280;68544;45.566;10.238;2023-06-19T09:42:40;60991.41;;;-142.84;100.00
79138;BME280;68544;45.566;10.238;2023-06-19T09:46:05;60991.41;;;-142.84;100.00
79138;BME280;68544;45.566;10.238;2023-06-19T09:49:31;60991.41;;;-142.84;100.00
79138;BME280;68544;45.566;10.238;2023-06-19T09:52:55;60991.41;;;-142.84;100.00
79138;BME280;68544;45.566;10.238;2023-06-19T09:56:20;60991.41;;;-142.84;100.00
79138;BME280;68544;45.566;10.238;2023-06-19T09:59:42;60991.41;;;-142.84;100.00
79138;BME280;68544;45.566;10.238;2023-06-19T10:03:11;60991.41;;;-142.84;100.00
79138;BME280;68544;45.566;10.238;2023-06-19T10:06:45;60991.41;;;-142.84;100.00
79138;BME280;68544;45.566;10.238;2023-06-19T10:10:22;60991.41;;;-142.84;100.00
79138;BME280;68544;45.566;10.238;2023-06-19T10:13:47;60991.41;;;-142.84;100.00
79138;BME280;68544;45.566;10.238;2023-06-19T10:17:20;60991.41;;;-142.84;100.00
79138;BME280;68544;45.566;10.238;2023-06-19T10:20:48;60991.41;;;-142.84;100.00
79138;BME280;68544;45.566;10.238;2023-06-19T10:24:15;60991.41;;;-142.84;100.00
79138;BME280;68544;45.566;10.238;2023-06-19T10:27:42;60991.41;;;-142.84;100.00
79138;BME280;68544;45.566;10.238;2023-06-19T10:31:14;60991.41;;;-142.84;100.00
79138;BME280;68544;45.566;10.238;2023-06-19T10:34:38;60991.41;;;-142.84;100.00
79138;BME280;68544;45.566;10.238;2023-06-19T10:38:02;60991.41;;;-142.84;100.00
79138;BME280;68544;45.566;10.238;2023-06-19T10:41:26;60991.41;;;-142.84;100.00
79138;BME280;68544;45.566;10.238;2023-06-19T10:44:58;60991.41;;;-142.84;100.00
79138;BME280;68544;45.566;10.238;2023-06-19T10:48:23;60991.41;;;-142.84;100.00
79138;BME280;68544;45.566;10.238;2023-06-19T10:51:48;60991.41;;;-142.84;100.00
79138;BME280;68544;45.566;10.238;2023-06-19T10:55:12;60991.41;;;-142.84;100.00
79138;BME280;68544;45.566;10.238;2023-06-19T10:58:36;60991.41;;;-142.84;100.00
79138;BME280;68544;45.566;10.238;2023-06-19T11:01:59;60991.41;;;-142.84;100.00
79138;BME280;68544;45.566;10.238;2023-06-19T11:05:24;60991.41;;;-142.84;100.00
79138;BME280;68544;45.566;10.238;2023-06-19T11:08:51;60991.41;;;-142.84;100.00
79138;BME280;68544;45.566;10.238;2023-06-19T11:12:05;60991.41;;;-142.84;100.00
79138;BME280;68544;45.566;10.238;2023-06-19T11:15:32;60991.41;;;-142.84;100.00
79138;BME280;68544;45.566;10.238;2023-06-19T11:18:57;60991.41;;;-142.84;100.00
79138;BME280;68544;45.566;10.238;2023-06-19T11:22:35;60991.41;;;-142.84;100.00
79138;BME280;68544;45.566;10.238;2023-06-19T11:26:02;60991.41;;;-142.84;100.00
79138;BME280;68544;45.566;10.238;2023-06-19T11:29:30;60991.41;;;-142.84;100.00
79138;BME280;68544;45.566;10.238;2023-06-19T11:33:18;60991.41;;;-142.84;100.00
79138;BME280;68544;45.566;10.238;2023-06-19T11:36:52;60991.41;;;-142.84;100.00
79138;BME280;68544;45.566;10.238;2023-06-19T11:40:16;60991.41;;;-142.84;100.00
79138;BME280;68544;45.566;10.238;2023-06-19T11:43:47;60991.41;;;-142.84;100.00
79138;BME280;68544;45.566;10.238;2023-06-19T11:47:10;60991.41;;;-142.84;100.00
79138;BME280;68544;45.566;10.238;2023-06-19T11:50:34;60991.41;;;-142.84;100.00
79138;BME280;68544;45.566;10.238;2023-06-19T11:53:53;60991.41;;;-142.84;100.00
79138;BME280;68544;45.566;10.238;2023-06-19T11:57:12;60991.41;;;-142.84;100.00
79138;BME280;68544;45.566;10.238;2023-06-19T12:00:14;60991.41;;;-142.84;100.00
79138;BME280;68544;45.566;10.238;2023-06-19T12:03:03;60991.41;;;-142.84;100.00
79138;BME280;68544;45.566;10.238;2023-06-19T12:05:59;60991.41;;;-142.84;100.00
79138;BME280;68544;45.566;10.238;2023-06-19T12:08:25;60991.41;;;-142.84;100.00
79138;BME280;68544;45.566;10.238;2023-06-19T12:10:50;66057.25;;;36.19;28.93
79138;BME280;68544;45.566;10.238;2023-06-19T12:13:17;60991.41;;;-142.84;100.00
79138;BME280;68544;45.566;10.238;2023-06-19T12:15:42;60991.41;;;-142.84;100.00
79138;BME280;68544;45.566;10.238;2023-06-19T12:18:07;60991.41;;;-142.84;100.00
79138;BME280;68544;45.566;10.238;2023-06-19T12:20:33;60991.41;;;-142.84;100.00
79138;BME280;68544;45.566;10.238;2023-06-19T12:22:58;60991.41;;;-142.84;100.00
79138;BME280;68544;45.566;10.238;2023-06-19T12:25:24;60991.41;;;-142.84;100.00
79138;BME280;68544;45.566;10.238;2023-06-19T12:27:49;60991.41;;;-142.84;100.00
79138;BME280;68544;45.566;10.238;2023-06-19T12:30:15;60991.41;;;-142.84;100.00
79138;BME280;68544;45.566;10.238;2023-06-19T12:32:40;60991.41;;;-142.84;100.00
79138;BME280;68544;45.566;10.238;2023-06-19T12:35:06;60991.41;;;-142.84;100.00
79138;BME280;68544;45.566;10.238;2023-06-19T12:37:32;60991.41;;;-142.84;100.00
79138;BME280;68544;45.566;10.238;2023-06-19T12:39:58;60991.41;;;-142.84;100.00
79138;BME280;68544;45.566;10.238;2023-06-19T12:42:23;60991.41;;;-142.84;100.00
79138;BME280;68544;45.566;10.238;2023-06-19T12:44:49;60991.41;;;-142.84;100.00
79138;BME280;68544;45.566;10.238;2023-06-19T12:47:14;60991.41;;;-142.84;100.00
79138;BME280;68544;45.566;10.238;2023-06-19T12:49:40;60991.41;;;-142.84;100.00
79138;BME280;68544;45.566;10.238;2023-06-19T12:52:06;60991.41;;;-142.84;100.00
79138;BME280;68544;45.566;10.238;2023-06-19T12:54:31;60991.41;;;-142.84;100.00
79138;BME280;68544;45.566;10.238;2023-06-19T12:56:57;60991.41;;;-142.84;100.00
79138;BME280;68544;45.566;10.238;2023-06-19T12:59:22;60991.41;;;-142.84;100.00
79138;BME280;68544;45.566;10.238;2023-06-19T13:01:47;60991.41;;;-142.84;100.00
79138;BME280;68544;45.566;10.238;2023-06-19T13:04:12;60991.41;;;-142.84;100.00
79138;BME280;68544;45.566;10.238;2023-06-19T13:06:38;60991.41;;;-142.84;100.00
79138;BME280;68544;45.566;10.238;2023-06-19T13:09:05;60991.41;;;-142.84;100.00
79138;BME280;68544;45.566;10.238;2023-06-19T13:11:31;60991.41;;;-142.84;100.00
79138;BME280;68544;45.566;10.238;2023-06-19T13:13:57;60991.41;;;-142.84;100.00
79138;BME280;68544;45.566;10.238;2023-06-19T13:16:22;60991.41;;;-142.84;100.00
79138;BME280;68544;45.566;10.238;2023-06-19T13:18:50;60991.41;;;-142.84;100.00
79138;BME280;68544;45.566;10.238;2023-06-19T13:21:16;60991.41;;;-142.84;100.00
79138;BME280;68544;45.566;10.238;2023-06-19T13:23:41;60991.41;;;-142.84;100.00